Time;durP1;ratioP1;P1;durP2;ratioP2;P2;SDS_P1;SDS_P2;PMS_P1;PMS_P2;Temp;Humidity;BMP_temperature;BMP_pressure;BME280_temperature;BME280_humidity;BME280_pressure;Samples;Min_cycle;Max_cycle;Signal;HPM_P1;HPM_P2
2022/10/26 00:01:13;;;;;;;0.73;0.30;;;30.20;54.60;;;;;;5029655;28;20037;-68
2022/10/26 00:03:42;;;;;;;0.55;0.25;;;30.50;57.20;;;;;;5043213;28;20025;-68
2022/10/26 00:06:13;;;;;;;0.20;0.10;;;31.00;57.10;;;;;;5043086;28;20453;-68
2022/10/26 00:08:41;;;;;;;1.10;0.82;;;31.00;53.20;;;;;;5039748;28;20030;-71
2022/10/26 00:11:09;;;;;;;1.05;0.15;;;30.90;54.30;;;;;;5032370;28;20025;-71
2022/10/26 00:13:37;;;;;;;0.10;0.10;;;30.90;54.90;;;;;;5024451;28;20034;-68
2022/10/26 00:16:15;;;;;;;0.10;0.10;;;30.80;53.20;;;;;;5033474;28;20095;-68
2022/10/26 00:18:43;;;;;;;0.10;0.10;;;31.00;53.80;;;;;;5030108;28;20094;-68
2022/10/26 00:21:11;;;;;;;0.17;0.17;;;30.50;52.00;;;;;;5030855;28;20026;-67
2022/10/26 00:23:38;;;;;;;0.47;0.20;;;29.90;52.40;;;;;;5027095;28;20044;-67
2022/10/26 00:26:06;;;;;;;1.30;0.10;;;29.60;53.80;;;;;;5027202;28;20022;-67
2022/10/26 00:28:34;;;;;;;1.08;0.20;;;29.60;55.00;;;;;;5028709;28;20072;-67
2022/10/26 00:31:22;;;;;;;1.30;0.20;;;29.20;54.40;;;;;;5037190;28;20778;-67
2022/10/26 00:33:53;;;;;;;0.20;0.20;;;28.50;54.50;;;;;;5026954;28;20490;-67
2022/10/26 00:36:20;;;;;;;0.03;0.03;;;27.90;57.10;;;;;;5031789;28;20028;-67
2022/10/26 00:38:52;;;;;;;0.20;0.20;;;27.50;56.70;;;;;;5024787;28;20021;-67
2022/10/26 00:41:23;;;;;;;0.65;0.10;;;27.30;58.60;;;;;;5024613;28;20021;-67
2022/10/26 00:43:51;;;;;;;0.25;0.10;;;27.10;58.10;;;;;;5028572;28;20463;-67
2022/10/26 00:46:38;;;;;;;0.30;0.20;;;27.10;57.40;;;;;;5036927;28;20021;-67
2022/10/26 00:49:14;;;;;;;9.70;0.50;;;27.30;59.80;;;;;;5021204;28;20078;-69
2022/10/26 00:51:52;;;;;;;0.68;0.25;;;27.30;58.40;;;;;;5026498;28;20048;-69
2022/10/26 00:54:20;;;;;;;3.47;0.50;;;27.30;59.20;;;;;;5028971;28;20030;-69
2022/10/26 00:56:52;;;;;;;0.57;0.30;;;27.20;59.60;;;;;;5028241;28;20018;-69
2022/10/26 00:59:22;;;;;;;1.15;0.20;;;27.50;60.10;;;;;;5028485;28;20064;-69
2022/10/26 01:01:50;;;;;;;0.98;0.30;;;27.50;59.60;;;;;;5029713;28;20386;-69
2022/10/26 01:04:18;;;;;;;1.27;0.20;;;27.80;61.20;;;;;;5029587;28;20397;-68
2022/10/26 01:06:46;;;;;;;0.10;0.10;;;28.20;58.90;;;;;;5029773;28;20056;-68
2022/10/26 01:09:13;;;;;;;0.75;0.25;;;28.50;55.30;;;;;;5029567;28;20490;-68
2022/10/26 01:11:41;;;;;;;0.17;0.13;;;28.60;55.70;;;;;;5030111;28;20045;-69
2022/10/26 01:14:11;;;;;;;0.60;0.25;;;28.30;54.80;;;;;;5029451;28;20030;-69
2022/10/26 01:17:15;;;;;;;0.10;0.10;;;28.30;55.00;;;;;;5030061;28;20071;-70
2022/10/26 01:20:18;;;;;;;0.25;0.20;;;28.20;54.00;;;;;;5029928;28;20385;-68
2022/10/26 01:23:07;;;;;;;0.38;0.20;;;28.60;55.00;;;;;;5029083;28;20038;-69
2022/10/26 01:26:02;;;;;;;0.20;0.20;;;28.60;53.90;;;;;;5031126;28;20029;-69
2022/10/26 01:28:52;;;;;;;0.50;0.30;;;28.40;51.30;;;;;;5033287;28;20017;-69
2022/10/26 01:31:28;;;;;;;3.58;0.30;;;28.50;50.50;;;;;;5033489;28;20028;-69
2022/10/26 01:34:10;;;;;;;0.30;0.25;;;28.60;50.20;;;;;;5032142;28;20037;-70
2022/10/26 01:36:56;;;;;;;0.88;0.20;;;28.80;53.20;;;;;;5034324;28;20105;-71
2022/10/26 01:39:48;;;;;;;0.45;0.13;;;28.90;52.10;;;;;;5032177;28;20516;-67
2022/10/26 01:42:17;;;;;;;0.25;0.20;;;28.90;49.80;;;;;;5031851;28;20121;-67
2022/10/26 01:45:06;;;;;;;0.25;0.25;;;28.70;49.20;;;;;;5032689;28;20021;-67
2022/10/26 01:47:36;;;;;;;0.40;0.40;;;28.70;49.80;;;;;;5032092;28;20014;-67
2022/10/26 01:50:05;;;;;;;0.68;0.30;;;29.00;51.50;;;;;;5032026;28;20112;-67
2022/10/26 01:52:32;;;;;;;1.55;0.30;;;29.20;51.60;;;;;;5029693;28;20401;-67
2022/10/26 01:55:07;;;;;;;0.40;0.20;;;29.60;51.50;;;;;;5032517;28;20139;-66
2022/10/26 01:57:37;;;;;;;1.75;0.52;;;29.70;49.30;;;;;;5032986;28;20034;-66
2022/10/26 02:00:12;;;;;;;0.43;0.28;;;29.80;50.50;;;;;;5032647;28;20173;-66
2022/10/26 02:02:58;;;;;;;0.20;0.20;;;29.90;48.30;;;;;;5032992;28;20053;-66
2022/10/26 02:05:35;;;;;;;0.28;0.28;;;29.70;48.40;;;;;;5032779;28;20014;-66
2022/10/26 02:08:17;;;;;;;0.85;0.40;;;29.40;49.20;;;;;;5032744;28;20112;-66
2022/10/26 02:10:58;;;;;;;0.88;0.30;;;29.00;50.80;;;;;;5031596;28;20116;-66
2022/10/26 02:13:46;;;;;;;0.60;0.30;;;29.00;49.60;;;;;;5031026;28;20049;-66
2022/10/26 02:16:19;;;;;;;1.08;0.32;;;28.70;51.30;;;;;;5031769;28;20171;-66
2022/10/26 02:18:58;;;;;;;0.47;0.30;;;28.40;50.40;;;;;;5032512;28;20025;-66
2022/10/26 02:21:48;;;;;;;0.20;0.20;;;28.40;50.80;;;;;;5032498;28;20029;-66
2022/10/26 02:24:16;;;;;;;1.00;0.30;;;28.50;52.10;;;;;;5032392;28;20037;-66
2022/10/26 02:26:47;;;;;;;0.35;0.20;;;28.70;50.90;;;;;;5031514;28;20599;-66
2022/10/26 02:29:18;;;;;;;0.20;0.20;;;29.10;50.90;;;;;;5032504;28;20029;-66
2022/10/26 02:31:48;;;;;;;1.05;0.20;;;29.50;51.10;;;;;;5032373;28;20382;-66
2022/10/26 02:34:21;;;;;;;0.52;0.28;;;29.90;49.90;;;;;;5032274;28;20052;-66
2022/10/26 02:36:50;;;;;;;0.60;0.10;;;30.20;48.80;;;;;;5031485;28;20432;-66
2022/10/26 02:39:18;;;;;;;0.10;0.10;;;30.10;47.50;;;;;;5032233;28;20029;-66
2022/10/26 02:41:47;;;;;;;1.55;0.20;;;30.20;49.40;;;;;;5032126;28;20371;-66
2022/10/26 02:44:18;;;;;;;0.32;0.20;;;30.20;48.00;;;;;;5030953;28;20109;-66
2022/10/26 02:46:46;;;;;;;0.43;0.30;;;29.80;47.90;;;;;;5031944;28;20029;-66
2022/10/26 02:49:14;;;;;;;0.20;0.20;;;29.60;49.40;;;;;;5032360;28;20028;-66
2022/10/26 02:51:46;;;;;;;0.30;0.30;;;29.80;50.80;;;;;;5032295;28;20128;-66
2022/10/26 02:54:32;;;;;;;0.77;0.30;;;30.00;49.40;;;;;;5032272;28;20119;-66
2022/10/26 02:57:16;;;;;;;1.00;0.43;;;29.80;48.30;;;;;;5031779;28;20071;-66
2022/10/26 02:59:46;;;;;;;0.50;0.30;;;29.70;47.80;;;;;;5032141;28;20021;-66
2022/10/26 03:02:16;;;;;;;0.38;0.22;;;29.50;49.50;;;;;;5032223;28;20108;-66
2022/10/26 03:04:44;;;;;;;0.93;0.30;;;29.40;48.90;;;;;;5032154;28;20021;-66
2022/10/26 03:07:11;;;;;;;0.55;0.45;;;29.60;49.10;;;;;;5032189;28;20152;-66
2022/10/26 03:09:38;;;;;;;1.23;0.50;;;29.70;50.10;;;;;;5031429;28;20033;-66
2022/10/26 03:12:06;;;;;;;0.45;0.20;;;29.80;49.40;;;;;;5031513;28;20774;-66
2022/10/26 03:14:33;;;;;;;1.85;0.30;;;29.50;48.60;;;;;;5030071;28;20124;-66
2022/10/26 03:17:00;;;;;;;0.20;0.20;;;29.80;49.00;;;;;;5031575;28;20026;-66
2022/10/26 03:19:27;;;;;;;0.73;0.40;;;30.00;49.90;;;;;;5031349;28;20025;-66
2022/10/26 03:21:55;;;;;;;2.45;0.25;;;30.20;48.90;;;;;;5031272;28;20109;-66
2022/10/26 03:24:22;;;;;;;0.20;0.17;;;29.90;48.10;;;;;;5030603;28;20026;-66
2022/10/26 03:26:49;;;;;;;0.82;0.40;;;29.80;48.00;;;;;;5030909;28;20025;-66
2022/10/26 03:29:16;;;;;;;0.15;0.15;;;29.70;48.80;;;;;;5031022;28;20502;-66
2022/10/26 03:31:43;;;;;;;0.28;0.10;;;29.50;49.70;;;;;;5032192;28;20112;-66
2022/10/26 03:34:11;;;;;;;0.43;0.30;;;29.70;51.40;;;;;;5030458;28;20041;-66
2022/10/26 03:36:38;;;;;;;0.20;0.20;;;29.90;51.00;;;;;;5030023;28;20026;-66
2022/10/26 03:39:05;;;;;;;0.17;0.17;;;30.40;50.20;;;;;;5029100;28;20030;-66
2022/10/26 03:41:33;;;;;;;0.38;0.28;;;30.50;50.30;;;;;;5037726;28;20128;-66
2022/10/26 03:44:00;;;;;;;0.50;0.20;;;31.00;49.20;;;;;;5032709;28;20023;-65
2022/10/26 03:46:27;;;;;;;0.60;0.20;;;31.10;48.90;;;;;;5030775;28;20026;-64
2022/10/26 03:48:54;;;;;;;0.20;0.20;;;30.90;47.80;;;;;;5030350;28;20040;-66
2022/10/26 03:51:22;;;;;;;0.20;0.20;;;30.60;47.80;;;;;;5028934;28;20402;-66
2022/10/26 03:53:49;;;;;;;0.60;0.30;;;30.40;48.90;;;;;;5030455;28;20037;-65
2022/10/26 03:56:17;;;;;;;0.20;0.20;;;30.30;48.80;;;;;;5030233;28;20108;-66
2022/10/26 03:58:44;;;;;;;0.35;0.20;;;30.30;49.20;;;;;;5030346;28;20025;-66
2022/10/26 04:01:11;;;;;;;0.90;0.30;;;30.30;49.90;;;;;;5030467;28;20488;-65
2022/10/26 04:03:38;;;;;;;2.33;0.40;;;30.30;49.90;;;;;;5029317;28;20046;-66
2022/10/26 04:06:06;;;;;;;0.98;0.35;;;30.40;49.70;;;;;;5030356;28;20014;-66
2022/10/26 04:08:33;;;;;;;0.20;0.20;;;30.70;50.90;;;;;;5030224;28;20064;-67
2022/10/26 04:11:00;;;;;;;0.30;0.15;;;30.60;48.40;;;;;;5028870;28;20021;-67
2022/10/26 04:13:27;;;;;;;0.60;0.40;;;30.60;50.00;;;;;;5028907;28;20124;-67
2022/10/26 04:15:55;;;;;;;1.98;0.20;;;30.60;50.50;;;;;;5029973;28;20023;-67
2022/10/26 04:18:22;;;;;;;0.10;0.10;;;30.70;49.30;;;;;;5029738;28;20490;-67
2022/10/26 04:20:49;;;;;;;0.20;0.20;;;30.90;48.20;;;;;;5029950;28;20025;-66
2022/10/26 04:23:18;;;;;;;0.60;0.20;;;31.10;49.50;;;;;;5028956;28;20026;-67
2022/10/26 04:25:45;;;;;;;2.17;0.13;;;31.10;47.80;;;;;;5028961;28;20393;-68
2022/10/26 04:28:13;;;;;;;1.73;0.40;;;30.80;48.90;;;;;;5012225;28;20026;-67
2022/10/26 04:30:41;;;;;;;0.32;0.30;;;30.90;48.70;;;;;;5026158;28;20556;-67
2022/10/26 04:33:08;;;;;;;1.38;0.38;;;30.90;49.70;;;;;;5027639;28;20104;-67
2022/10/26 04:35:35;;;;;;;0.65;0.22;;;31.00;48.40;;;;;;5026967;28;20159;-67
2022/10/26 04:38:06;;;;;;;1.13;0.30;;;31.10;49.80;;;;;;5027250;28;20033;-67
2022/10/26 04:40:34;;;;;;;0.10;0.10;;;31.30;49.20;;;;;;5026895;28;20119;-67
2022/10/26 04:43:02;;;;;;;0.40;0.30;;;31.30;47.70;;;;;;5025944;28;20094;-67
2022/10/26 04:45:32;;;;;;;0.35;0.30;;;31.20;47.80;;;;;;5027078;28;20029;-67
2022/10/26 04:48:11;;;;;;;2.72;0.80;;;31.20;48.90;;;;;;5027141;28;20445;-67
2022/10/26 04:50:39;;;;;;;0.20;0.20;;;31.00;45.90;;;;;;5025952;28;20036;-67
2022/10/26 04:53:08;;;;;;;0.40;0.20;;;31.10;47.10;;;;;;5027102;28;20107;-67
2022/10/26 04:55:36;;;;;;;0.28;0.20;;;31.10;46.90;;;;;;5027865;28;20025;-67
2022/10/26 04:58:03;;;;;;;0.47;0.20;;;31.20;47.70;;;;;;5027458;28;20025;-67
2022/10/26 05:00:31;;;;;;;1.45;0.40;;;31.30;46.70;;;;;;5028663;28;20032;-68
2022/10/26 05:03:00;;;;;;;0.85;0.30;;;31.30;46.70;;;;;;5009731;28;20018;-67
2022/10/26 05:05:28;;;;;;;0.22;0.22;;;31.10;46.00;;;;;;5019096;28;20025;-67
2022/10/26 05:07:56;;;;;;;0.40;0.20;;;30.90;45.80;;;;;;5027441;28;20029;-67
2022/10/26 05:10:24;;;;;;;1.40;0.40;;;30.60;46.50;;;;;;5027761;28;20309;-68
2022/10/26 05:12:56;;;;;;;0.75;0.30;;;30.30;46.90;;;;;;5028203;28;20037;-67
2022/10/26 05:15:23;;;;;;;1.08;0.40;;;30.00;48.10;;;;;;5028395;28;20025;-67
2022/10/26 05:17:59;;;;;;;0.35;0.20;;;29.90;48.40;;;;;;5020239;28;20034;-68
2022/10/26 05:20:30;;;;;;;0.93;0.50;;;30.00;47.90;;;;;;5009660;28;20053;-67
2022/10/26 05:23:02;;;;;;;1.85;0.45;;;30.00;47.20;;;;;;5009750;28;20041;-67
2022/10/26 05:25:31;;;;;;;1.35;0.50;;;29.90;47.90;;;;;;5027548;28;20026;-67
2022/10/26 05:28:00;;;;;;;0.85;0.40;;;29.80;48.50;;;;;;5028386;28;20026;-67
2022/10/26 05:30:28;;;;;;;1.35;0.55;;;29.70;47.90;;;;;;5028641;28;20037;-67
2022/10/26 05:33:03;;;;;;;1.02;0.35;;;29.50;47.20;;;;;;5028154;28;20476;-67
2022/10/26 05:35:31;;;;;;;0.65;0.50;;;29.30;49.40;;;;;;5029256;28;20147;-68
2022/10/26 05:37:59;;;;;;;0.80;0.30;;;29.20;48.70;;;;;;5029348;28;20104;-68
2022/10/26 05:40:26;;;;;;;0.40;0.30;;;29.30;50.40;;;;;;5027453;28;20036;-68
2022/10/26 05:43:00;;;;;;;1.38;0.50;;;29.50;49.40;;;;;;5028990;28;20064;-68
2022/10/26 05:45:28;;;;;;;0.30;0.30;;;29.80;50.00;;;;;;5027676;28;20129;-68
2022/10/26 05:47:56;;;;;;;2.20;0.30;;;29.80;47.80;;;;;;5028296;28;20073;-68
2022/10/26 05:50:23;;;;;;;0.55;0.30;;;29.60;48.40;;;;;;5029241;28;20029;-68
2022/10/26 05:52:50;;;;;;;4.35;0.50;;;29.60;49.40;;;;;;5028980;28;20053;-67
2022/10/26 05:55:18;;;;;;;1.02;0.40;;;29.60;49.60;;;;;;5028462;28;20072;-67
2022/10/26 05:57:46;;;;;;;0.57;0.38;;;29.50;49.30;;;;;;5028615;28;20704;-69
2022/10/26 06:00:22;;;;;;;0.55;0.30;;;29.50;49.70;;;;;;5029325;28;20030;-67
2022/10/26 06:03:14;;;;;;;2.50;0.30;;;29.50;49.70;;;;;;5028542;28;20029;-68
2022/10/26 06:05:56;;;;;;;0.80;0.30;;;29.40;50.20;;;;;;5028737;28;20087;-68
2022/10/26 06:08:26;;;;;;;0.85;0.30;;;29.30;50.60;;;;;;5027142;28;20036;-67
2022/10/26 06:10:55;;;;;;;0.38;0.30;;;29.30;50.00;;;;;;5028832;28;20056;-67
2022/10/26 06:13:22;;;;;;;1.08;0.50;;;29.20;50.40;;;;;;5037209;28;20037;-73
2022/10/26 06:16:01;;;;;;;0.30;0.30;;;29.20;49.80;;;;;;5030829;28;20017;-66
2022/10/26 06:18:43;;;;;;;0.35;0.20;;;29.20;48.60;;;;;;5031986;28;20043;-65
2022/10/26 06:21:26;;;;;;;1.35;0.28;;;29.10;46.50;;;;;;5028481;28;20155;-65
2022/10/26 06:24:05;;;;;;;0.30;0.30;;;29.00;47.60;;;;;;5029826;28;20025;-64
2022/10/26 06:26:38;;;;;;;0.70;0.22;;;28.70;47.90;;;;;;5024744;28;20017;-63
2022/10/26 06:29:59;;;;;;;3.30;0.43;;;28.50;48.80;;;;;;5028624;28;20125;-64
2022/10/26 06:32:27;;;;;;;2.15;0.38;;;28.10;49.70;;;;;;5020726;28;20045;-64
2022/10/26 06:35:24;;;;;;;2.03;0.60;;;27.70;50.80;;;;;;5025434;28;20509;-64
2022/10/26 06:37:54;;;;;;;2.08;0.30;;;27.50;51.20;;;;;;5025745;28;20132;-64
2022/10/26 06:40:23;;;;;;;2.15;0.30;;;27.20;52.20;;;;;;5030304;28;20033;-63
2022/10/26 06:42:51;;;;;;;2.30;0.47;;;27.00;52.70;;;;;;5032288;28;20021;-67
2022/10/26 06:45:18;;;;;;;2.75;0.68;;;26.80;53.40;;;;;;5030688;28;20358;-65
2022/10/26 06:47:53;;;;;;;1.02;0.50;;;26.60;54.20;;;;;;5028905;28;20017;-64
2022/10/26 06:50:45;;;;;;;3.15;0.70;;;26.50;54.00;;;;;;5045594;28;20057;-62
2022/10/26 06:53:24;;;;;;;0.75;0.30;;;26.40;54.70;;;;;;5029226;28;20116;-65
2022/10/26 06:55:51;;;;;;;2.30;0.77;;;26.30;54.70;;;;;;5030884;28;20508;-66
2022/10/26 06:58:22;;;;;;;1.80;0.40;;;26.10;55.40;;;;;;5030711;28;20025;-66
2022/10/26 07:00:52;;;;;;;3.42;0.50;;;26.10;55.20;;;;;;5029020;28;20454;-67
2022/10/26 07:03:20;;;;;;;1.02;0.30;;;26.00;56.40;;;;;;5037473;28;20030;-67
2022/10/26 07:05:47;;;;;;;0.38;0.28;;;25.90;55.20;;;;;;5034717;28;20032;-63
2022/10/26 07:08:14;;;;;;;1.23;0.40;;;25.90;56.50;;;;;;5025818;28;20108;-65
2022/10/26 07:10:42;;;;;;;0.73;0.38;;;25.80;56.50;;;;;;5032120;28;20052;-66
2022/10/26 07:13:10;;;;;;;0.73;0.40;;;25.70;56.70;;;;;;5030159;28;20064;-64
2022/10/26 07:15:38;;;;;;;3.20;0.40;;;25.70;56.80;;;;;;5029184;28;20029;-64
2022/10/26 07:18:07;;;;;;;0.60;0.30;;;25.60;57.30;;;;;;5026767;28;20394;-63
2022/10/26 07:20:39;;;;;;;0.40;0.28;;;25.50;58.20;;;;;;5028101;28;20025;-63
2022/10/26 07:23:09;;;;;;;1.67;0.60;;;25.50;57.90;;;;;;5026780;28;20029;-63
2022/10/26 07:25:39;;;;;;;0.65;0.43;;;25.40;58.30;;;;;;5029555;28;20029;-63
2022/10/26 07:28:10;;;;;;;1.40;0.40;;;25.40;57.90;;;;;;5030925;28;20033;-63
2022/10/26 07:30:38;;;;;;;1.60;0.50;;;25.30;57.80;;;;;;5030754;28;20052;-62
2022/10/26 07:33:11;;;;;;;4.90;0.55;;;25.30;57.70;;;;;;5030295;28;20064;-62
2022/10/26 07:35:39;;;;;;;2.55;1.05;;;25.30;57.90;;;;;;5030758;28;20032;-62
2022/10/26 07:38:07;;;;;;;1.30;0.68;;;25.20;58.30;;;;;;5030850;28;20029;-62
2022/10/26 07:40:35;;;;;;;0.90;0.60;;;25.10;57.30;;;;;;5030965;28;20075;-62
2022/10/26 07:43:02;;;;;;;1.83;0.50;;;25.10;57.70;;;;;;5030861;28;20018;-62
2022/10/26 07:45:30;;;;;;;1.13;0.50;;;25.10;58.60;;;;;;5029581;28;20371;-62
2022/10/26 07:47:57;;;;;;;2.03;0.43;;;25.00;58.90;;;;;;5031056;28;20032;-62
2022/10/26 07:50:25;;;;;;;0.68;0.40;;;24.90;59.10;;;;;;5030600;28;20033;-62
2022/10/26 07:52:53;;;;;;;3.28;0.40;;;24.80;59.40;;;;;;5030243;28;20049;-62
2022/10/26 07:55:20;;;;;;;4.13;0.80;;;24.80;59.40;;;;;;5029557;28;20689;-62
2022/10/26 07:57:47;;;;;;;1.15;0.55;;;24.80;60.00;;;;;;5030606;28;20478;-62
2022/10/26 08:00:15;;;;;;;4.20;0.38;;;24.70;60.50;;;;;;5031173;28;20029;-62
2022/10/26 08:02:42;;;;;;;4.35;0.50;;;24.70;61.10;;;;;;5046278;28;20028;-62
2022/10/26 08:05:09;;;;;;;1.33;0.32;;;24.60;61.90;;;;;;5030550;28;20025;-62
2022/10/26 08:07:41;;;;;;;1.02;0.55;;;24.60;61.80;;;;;;5030319;28;20051;-62
2022/10/26 08:10:10;;;;;;;3.03;0.73;;;24.50;61.20;;;;;;5030310;28;20044;-62
2022/10/26 08:12:38;;;;;;;0.55;0.43;;;24.50;61.30;;;;;;5030146;28;20029;-62
2022/10/26 08:15:06;;;;;;;1.48;0.50;;;24.50;60.30;;;;;;5030286;28;20053;-62
2022/10/26 08:17:33;;;;;;;1.02;0.60;;;24.40;60.50;;;;;;5030297;28;20018;-62
2022/10/26 08:20:00;;;;;;;1.75;0.30;;;24.40;60.70;;;;;;5030104;28;20784;-62
2022/10/26 08:22:30;;;;;;;2.30;0.43;;;24.40;60.40;;;;;;5028713;28;20378;-62
2022/10/26 08:24:57;;;;;;;1.35;0.60;;;24.30;61.50;;;;;;5030177;28;20029;-62
2022/10/26 08:27:25;;;;;;;0.70;0.43;;;24.30;60.90;;;;;;5030057;28;20500;-62
2022/10/26 08:29:52;;;;;;;1.85;0.75;;;24.20;61.40;;;;;;5030063;28;20025;-62
2022/10/26 08:32:20;;;;;;;2.15;0.40;;;24.20;62.30;;;;;;5030105;28;20028;-62
2022/10/26 08:34:47;;;;;;;1.55;0.30;;;24.10;62.50;;;;;;5029567;28;20389;-63
2022/10/26 08:37:14;;;;;;;2.00;0.32;;;24.10;62.80;;;;;;5028920;28;20432;-62
2022/10/26 08:39:41;;;;;;;0.47;0.32;;;24.00;62.70;;;;;;5029941;28;20104;-62
2022/10/26 08:42:21;;;;;;;0.80;0.38;;;24.00;62.80;;;;;;5029881;28;20025;-63
2022/10/26 08:44:57;;;;;;;0.50;0.30;;;24.00;63.50;;;;;;5029531;28;20079;-63
2022/10/26 08:47:47;;;;;;;1.80;0.45;;;23.90;63.20;;;;;;5029882;28;20490;-63
2022/10/26 08:50:29;;;;;;;0.70;0.40;;;23.90;63.60;;;;;;5030201;28;20018;-62
2022/10/26 08:53:03;;;;;;;0.73;0.40;;;23.80;64.40;;;;;;5029323;28;20041;-63
2022/10/26 08:56:01;;;;;;;0.52;0.32;;;23.70;64.80;;;;;;5029363;28;20494;-63
2022/10/26 08:58:33;;;;;;;0.30;0.25;;;23.70;64.80;;;;;;5035469;28;20107;-62
2022/10/26 09:01:00;;;;;;;1.02;0.60;;;23.70;65.10;;;;;;5029766;28;20571;-63
2022/10/26 09:03:27;;;;;;;1.75;0.40;;;23.60;65.20;;;;;;5029575;28;20056;-63
2022/10/26 09:06:24;;;;;;;1.13;0.50;;;23.60;65.20;;;;;;5029610;28;20117;-63
2022/10/26 09:08:56;;;;;;;1.65;0.50;;;23.60;65.40;;;;;;5009862;28;20033;-63
2022/10/26 09:12:01;;;;;;;1.95;0.40;;;23.60;66.40;;;;;;5011855;28;20466;-62
2022/10/26 09:14:53;;;;;;;1.35;0.50;;;23.50;66.70;;;;;;5029543;28;20038;-63
2022/10/26 09:17:32;;;;;;;0.73;0.40;;;23.50;67.20;;;;;;5029603;28;20366;-62
2022/10/26 09:20:06;;;;;;;1.55;1.27;;;23.40;67.80;;;;;;5029468;28;20032;-62
2022/10/26 09:22:50;;;;;;;8.57;0.52;;;23.30;67.50;;;;;;5028202;28;20026;-62
2022/10/26 09:25:22;;;;;;;1.23;0.50;;;23.30;68.10;;;;;;5029647;28;20290;-63
2022/10/26 09:28:01;;;;;;;3.03;1.08;;;23.30;68.40;;;;;;5029172;28;20038;-62
2022/10/26 09:30:29;;;;;;;0.70;0.32;;;23.20;68.80;;;;;;5029528;28;20025;-63
2022/10/26 09:33:08;;;;;;;0.65;0.40;;;23.20;69.10;;;;;;5029201;28;20029;-62
2022/10/26 09:36:02;;;;;;;0.90;0.40;;;23.10;68.30;;;;;;5028276;28;20033;-62
2022/10/26 09:39:13;;;;;;;1.23;0.73;;;23.00;69.50;;;;;;5028713;28;20056;-63
2022/10/26 09:41:49;;;;;;;0.77;0.47;;;22.90;69.10;;;;;;5029016;28;20373;-62
2022/10/26 09:44:36;;;;;;;0.95;0.45;;;22.80;68.70;;;;;;5029580;28;20078;-62
2022/10/26 09:47:16;;;;;;;1.73;0.45;;;22.80;69.50;;;;;;5031687;28;20032;-62
2022/10/26 09:49:50;;;;;;;1.15;0.45;;;22.70;69.00;;;;;;5033142;28;20021;-63
2022/10/26 09:52:17;;;;;;;;;;;22.60;69.20;;;;;;5033618;28;20449;-62
2022/10/26 09:54:44;;;;;;;0.68;0.60;;;22.50;69.60;;;;;;5033268;28;19917;-62
2022/10/26 09:57:16;;;;;;;1.77;0.75;;;22.50;69.20;;;;;;5032642;28;20021;-62
2022/10/26 09:59:46;;;;;;;1.40;0.57;;;22.40;69.10;;;;;;5033211;28;20101;-63
2022/10/26 10:02:36;;;;;;;0.47;0.30;;;22.40;70.40;;;;;;5032747;28;20021;-62
2022/10/26 10:05:22;;;;;;;1.23;0.50;;;22.30;69.40;;;;;;5032725;28;20076;-63
2022/10/26 10:07:49;;;;;;;1.02;0.50;;;22.20;70.50;;;;;;5032928;28;20072;-63
2022/10/26 10:10:18;;;;;;;0.43;0.40;;;22.10;70.20;;;;;;5031811;28;20196;-63
2022/10/26 10:12:49;;;;;;;1.52;0.80;;;22.10;70.50;;;;;;5032768;28;20485;-62
2022/10/26 10:15:25;;;;;;;0.50;0.38;;;22.00;70.80;;;;;;5033099;28;20060;-62
2022/10/26 10:17:57;;;;;;;1.13;0.73;;;21.90;70.10;;;;;;5032517;28;20101;-63
2022/10/26 10:20:31;;;;;;;0.80;0.55;;;21.90;70.60;;;;;;5032380;28;20021;-62
2022/10/26 10:23:02;;;;;;;0.90;0.52;;;21.70;72.40;;;;;;5029783;28;20025;-63
2022/10/26 10:25:38;;;;;;;2.47;0.77;;;21.60;72.40;;;;;;5029386;28;20033;-64
2022/10/26 10:28:26;;;;;;;1.58;1.00;;;21.50;73.20;;;;;;5024654;28;20039;-63
2022/10/26 10:30:58;;;;;;;1.52;0.70;;;21.30;74.60;;;;;;5031961;28;20017;-64
2022/10/26 10:33:37;;;;;;;1.48;0.70;;;21.30;75.40;;;;;;5033736;28;20037;-64
2022/10/26 10:36:09;;;;;;;1.17;1.05;;;21.10;76.00;;;;;;5031373;28;20084;-63
2022/10/26 10:38:39;;;;;;;1.77;0.77;;;21.00;76.50;;;;;;5029281;28;20124;-63
2022/10/26 10:41:24;;;;;;;1.70;1.00;;;21.00;77.50;;;;;;5026582;28;20025;-63
2022/10/26 10:44:08;;;;;;;1.55;0.68;;;20.80;78.10;;;;;;5017795;28;20034;-64
2022/10/26 10:46:36;;;;;;;1.40;0.90;;;20.70;79.10;;;;;;5028147;28;20510;-63
2022/10/26 10:49:06;;;;;;;1.08;0.70;;;20.80;78.60;;;;;;5025865;28;20029;-63
2022/10/26 10:51:39;;;;;;;2.17;0.70;;;20.70;79.10;;;;;;5023644;28;20068;-63
2022/10/26 10:54:24;;;;;;;1.80;0.85;;;20.70;79.30;;;;;;5043982;28;20042;-64
2022/10/26 10:56:54;;;;;;;2.80;1.00;;;20.70;79.70;;;;;;5023356;28;20498;-64
2022/10/26 10:59:40;;;;;;;2.75;1.20;;;20.60;80.30;;;;;;5026165;28;20041;-63
2022/10/26 11:02:25;;;;;;;1.73;0.90;;;20.50;80.80;;;;;;5028836;28;20037;-63
2022/10/26 11:05:10;;;;;;;3.33;1.77;;;20.40;81.30;;;;;;5027469;28;20147;-64
2022/10/26 11:07:52;;;;;;;2.65;1.40;;;20.30;82.60;;;;;;5027467;28;20033;-64
2022/10/26 11:10:21;;;;;;;3.22;1.30;;;20.30;83.10;;;;;;5028735;28;20029;-64
2022/10/26 11:13:02;;;;;;;6.80;0.98;;;20.30;83.10;;;;;;5027169;28;20569;-64
2022/10/26 11:15:34;;;;;;;1.17;0.65;;;20.20;83.80;;;;;;5017792;28;20044;-63
2022/10/26 11:18:26;;;;;;;1.60;0.85;;;20.20;83.70;;;;;;5027302;28;20029;-63
2022/10/26 11:21:36;;;;;;;2.47;0.60;;;20.20;85.20;;;;;;5025931;28;20042;-63
2022/10/26 11:24:24;;;;;;;1.98;0.60;;;20.20;84.40;;;;;;5026032;28;20025;-63
2022/10/26 11:27:14;;;;;;;0.32;0.32;;;20.20;84.60;;;;;;5026275;28;20025;-63
2022/10/26 11:29:47;;;;;;;1.63;0.95;;;20.20;85.10;;;;;;5027132;28;20030;-63
2022/10/26 11:32:20;;;;;;;1.80;0.82;;;20.20;85.10;;;;;;5026248;28;20092;-63
2022/10/26 11:35:18;;;;;;;1.40;0.60;;;20.20;84.80;;;;;;5025989;28;20052;-64
2022/10/26 11:38:00;;;;;;;2.28;0.88;;;20.20;84.50;;;;;;5025904;28;20040;-64
2022/10/26 11:40:36;;;;;;;1.00;0.70;;;20.10;85.80;;;;;;5026034;28;20095;-64
2022/10/26 11:43:17;;;;;;;0.98;0.70;;;20.10;85.70;;;;;;5026926;28;20034;-64
2022/10/26 11:46:03;;;;;;;2.13;0.77;;;20.10;85.70;;;;;;5025901;28;20025;-64
2022/10/26 11:48:51;;;;;;;2.65;1.05;;;20.10;85.80;;;;;;5026591;28;20491;-63
2022/10/26 11:51:52;;;;;;;1.42;1.00;;;20.00;87.20;;;;;;5026516;28;20128;-63
2022/10/26 11:54:33;;;;;;;1.95;0.90;;;20.00;86.80;;;;;;5026947;28;20113;-64
2022/10/26 11:57:03;;;;;;;1.52;0.75;;;20.00;87.30;;;;;;5026662;28;20394;-63
2022/10/26 11:59:36;;;;;;;2.42;1.00;;;19.90;87.30;;;;;;5024617;28;20087;-61
2022/10/26 12:02:24;;;;;;;2.17;1.00;;;20.00;87.60;;;;;;5023270;28;20038;-61
2022/10/26 12:05:33;;;;;;;2.45;0.82;;;19.90;87.40;;;;;;5025608;28;20029;-62
2022/10/26 12:08:10;;;;;;;2.72;0.98;;;19.90;88.00;;;;;;5023188;28;20039;-63
2022/10/26 12:10:41;;;;;;;1.02;0.80;;;19.90;88.20;;;;;;5021234;28;20058;-63
2022/10/26 12:13:14;;;;;;;1.88;0.70;;;19.80;88.80;;;;;;5023778;28;20385;-63
2022/10/26 12:15:52;;;;;;;1.33;0.63;;;19.80;89.70;;;;;;5024499;28;20079;-63
2022/10/26 12:18:38;;;;;;;1.08;0.40;;;19.80;89.40;;;;;;5028369;28;20082;-63
2022/10/26 12:21:07;;;;;;;3.80;0.68;;;19.80;89.50;;;;;;5025923;28;20104;-63
2022/10/26 12:23:52;;;;;;;0.43;0.40;;;19.70;90.10;;;;;;5023070;28;20386;-63
2022/10/26 12:26:28;;;;;;;2.03;0.40;;;19.70;90.20;;;;;;5029469;28;20032;-63
2022/10/26 12:29:02;;;;;;;0.90;0.50;;;19.70;90.50;;;;;;5028445;28;20026;-62
2022/10/26 12:31:38;;;;;;;1.45;0.28;;;19.60;90.60;;;;;;5028917;28;20036;-62
2022/10/26 12:34:23;;;;;;;0.47;0.47;;;19.60;90.70;;;;;;5028662;28;20068;-63
2022/10/26 12:36:57;;;;;;;0.88;0.57;;;19.60;90.80;;;;;;5027179;28;20116;-63
2022/10/26 12:39:43;;;;;;;0.75;0.40;;;19.60;91.00;;;;;;5027470;28;20040;-62
2022/10/26 12:42:11;;;;;;;1.33;0.60;;;19.60;91.00;;;;;;5026294;28;20036;-63
2022/10/26 12:44:40;;;;;;;0.63;0.40;;;19.50;91.30;;;;;;5028526;28;20048;-62
2022/10/26 12:47:08;;;;;;;0.70;0.35;;;19.50;91.50;;;;;;5028064;28;20080;-63
2022/10/26 12:50:00;;;;;;;0.30;0.30;;;19.50;91.30;;;;;;5027397;28;20023;-62
2022/10/26 12:52:44;;;;;;;1.58;0.40;;;19.50;91.40;;;;;;5025619;28;20053;-63
2022/10/26 12:55:49;;;;;;;1.90;0.30;;;19.50;91.50;;;;;;5028731;28;20513;-63
2022/10/26 12:58:38;;;;;;;3.20;0.50;;;19.50;91.40;;;;;;5027828;28;20490;-62
2022/10/26 13:01:27;;;;;;;0.73;0.30;;;19.50;91.70;;;;;;5036760;28;20029;-63
2022/10/26 13:03:54;;;;;;;5.30;1.38;;;19.50;91.90;;;;;;5027930;28;20021;-62
2022/10/26 13:06:52;;;;;;;0.52;0.40;;;19.50;91.60;;;;;;5026465;28;20219;-63
2022/10/26 13:09:27;;;;;;;0.63;0.30;;;19.40;91.90;;;;;;5027476;28;20028;-63
2022/10/26 13:11:56;;;;;;;0.32;0.30;;;19.40;92.00;;;;;;5030135;28;20065;-63
2022/10/26 13:14:28;;;;;;;0.38;0.20;;;19.30;92.10;;;;;;5036045;28;20568;-63
2022/10/26 13:16:55;;;;;;;0.52;0.35;;;19.30;92.20;;;;;;5025494;28;20064;-63
2022/10/26 13:19:35;;;;;;;0.70;0.40;;;19.30;92.30;;;;;;5030888;28;20022;-63
2022/10/26 13:22:03;;;;;;;1.58;0.40;;;19.20;92.40;;;;;;5030048;28;20395;-62
2022/10/26 13:24:33;;;;;;;2.13;0.50;;;19.20;92.60;;;;;;5033508;28;20034;-63